sensor_id;sensor_type;location;lat;lon;timestamp;P1;durP1;ratioP1;P2;durP2;ratioP2
77602;SDS011;66771;52.434;17.056;2023-01-16T00:01:32;5.30;;;2.20;;
77602;SDS011;66771;52.434;17.056;2023-01-16T00:04:09;4.90;;;2.50;;
77602;SDS011;66771;52.434;17.056;2023-01-16T00:06:57;5.30;;;2.40;;
77602;SDS011;66771;52.434;17.056;2023-01-16T00:09:33;5.70;;;2.30;;
77602;SDS011;66771;52.434;17.056;2023-01-16T00:12:08;8.20;;;2.40;;
77602;SDS011;66771;52.434;17.056;2023-01-16T00:14:44;4.30;;;2.50;;
77602;SDS011;66771;52.434;17.056;2023-01-16T00:17:24;4.60;;;2.50;;
77602;SDS011;66771;52.434;17.056;2023-01-16T00:20:33;6.60;;;2.90;;
77602;SDS011;66771;52.434;17.056;2023-01-16T00:26:16;4.10;;;2.50;;
77602;SDS011;66771;52.434;17.056;2023-01-16T00:28:51;5.90;;;2.30;;
77602;SDS011;66771;52.434;17.056;2023-01-16T00:31:40;5.50;;;1.90;;
77602;SDS011;66771;52.434;17.056;2023-01-16T00:38:05;4.90;;;2.50;;
77602;SDS011;66771;52.434;17.056;2023-01-16T00:40:39;4.50;;;2.10;;
77602;SDS011;66771;52.434;17.056;2023-01-16T00:43:22;5.70;;;2.50;;
77602;SDS011;66771;52.434;17.056;2023-01-16T00:46:22;5.50;;;2.50;;
77602;SDS011;66771;52.434;17.056;2023-01-16T00:48:52;5.30;;;2.10;;
77602;SDS011;66771;52.434;17.056;2023-01-16T00:54:43;4.50;;;2.20;;
77602;SDS011;66771;52.434;17.056;2023-01-16T00:57:22;2.90;;;1.80;;
77602;SDS011;66771;52.434;17.056;2023-01-16T01:10:09;7.50;;;2.30;;
77602;SDS011;66771;52.434;17.056;2023-01-16T01:12:53;4.80;;;2.20;;
77602;SDS011;66771;52.434;17.056;2023-01-16T01:15:49;2.90;;;1.70;;
77602;SDS011;66771;52.434;17.056;2023-01-16T01:18:59;5.50;;;2.10;;
77602;SDS011;66771;52.434;17.056;2023-01-16T01:25:03;3.90;;;2.20;;
77602;SDS011;66771;52.434;17.056;2023-01-16T01:27:45;3.80;;;2.00;;
77602;SDS011;66771;52.434;17.056;2023-01-16T01:30:33;5.20;;;2.10;;
77602;SDS011;66771;52.434;17.056;2023-01-16T01:33:46;5.10;;;1.80;;
77602;SDS011;66771;52.434;17.056;2023-01-16T01:36:39;4.70;;;2.20;;
77602;SDS011;66771;52.434;17.056;2023-01-16T01:40:05;4.60;;;1.90;;
77602;SDS011;66771;52.434;17.056;2023-01-16T01:43:13;5.60;;;2.30;;
77602;SDS011;66771;52.434;17.056;2023-01-16T01:49:37;4.60;;;1.90;;
77602;SDS011;66771;52.434;17.056;2023-01-16T01:52:40;7.30;;;2.40;;
77602;SDS011;66771;52.434;17.056;2023-01-16T01:55:38;4.30;;;2.00;;
77602;SDS011;66771;52.434;17.056;2023-01-16T02:01:33;3.10;;;1.70;;
77602;SDS011;66771;52.434;17.056;2023-01-16T02:04:08;3.90;;;2.00;;
77602;SDS011;66771;52.434;17.056;2023-01-16T02:06:40;4.90;;;1.90;;
77602;SDS011;66771;52.434;17.056;2023-01-16T02:09:22;4.10;;;2.10;;
77602;SDS011;66771;52.434;17.056;2023-01-16T02:11:53;6.20;;;2.30;;
77602;SDS011;66771;52.434;17.056;2023-01-16T02:14:21;3.60;;;1.80;;
77602;SDS011;66771;52.434;17.056;2023-01-16T02:16:54;4.70;;;2.10;;
77602;SDS011;66771;52.434;17.056;2023-01-16T02:44:58;4.50;;;2.10;;
77602;SDS011;66771;52.434;17.056;2023-01-16T02:47:39;3.50;;;1.70;;
77602;SDS011;66771;52.434;17.056;2023-01-16T02:50:13;7.60;;;2.40;;
77602;SDS011;66771;52.434;17.056;2023-01-16T02:52:46;9.30;;;2.40;;
77602;SDS011;66771;52.434;17.056;2023-01-16T02:55:22;4.50;;;2.30;;
77602;SDS011;66771;52.434;17.056;2023-01-16T02:57:57;5.30;;;2.40;;
77602;SDS011;66771;52.434;17.056;2023-01-16T03:00:27;2.40;;;1.90;;
77602;SDS011;66771;52.434;17.056;2023-01-16T03:02:55;7.40;;;2.10;;
77602;SDS011;66771;52.434;17.056;2023-01-16T03:05:22;3.60;;;2.10;;
77602;SDS011;66771;52.434;17.056;2023-01-16T03:18:41;5.40;;;2.10;;
77602;SDS011;66771;52.434;17.056;2023-01-16T03:21:13;5.70;;;2.80;;
77602;SDS011;66771;52.434;17.056;2023-01-16T03:23:53;2.60;;;2.10;;
77602;SDS011;66771;52.434;17.056;2023-01-16T03:26:31;5.30;;;2.40;;
77602;SDS011;66771;52.434;17.056;2023-01-16T03:29:10;5.20;;;2.10;;
77602;SDS011;66771;52.434;17.056;2023-01-16T03:31:52;3.50;;;2.10;;
77602;SDS011;66771;52.434;17.056;2023-01-16T03:34:28;9.00;;;2.90;;
77602;SDS011;66771;52.434;17.056;2023-01-16T03:37:08;3.50;;;2.20;;
77602;SDS011;66771;52.434;17.056;2023-01-16T03:39:45;5.90;;;2.20;;
77602;SDS011;66771;52.434;17.056;2023-01-16T03:42:22;5.50;;;2.30;;
77602;SDS011;66771;52.434;17.056;2023-01-16T03:44:55;5.00;;;2.20;;
77602;SDS011;66771;52.434;17.056;2023-01-16T03:47:29;3.60;;;2.20;;
77602;SDS011;66771;52.434;17.056;2023-01-16T03:50:02;8.30;;;2.30;;
77602;SDS011;66771;52.434;17.056;2023-01-16T03:52:39;3.30;;;2.10;;
77602;SDS011;66771;52.434;17.056;2023-01-16T03:55:15;3.70;;;2.20;;
77602;SDS011;66771;52.434;17.056;2023-01-16T04:00:18;6.80;;;2.10;;
77602;SDS011;66771;52.434;17.056;2023-01-16T04:05:17;4.60;;;2.00;;
77602;SDS011;66771;52.434;17.056;2023-01-16T04:10:36;4.20;;;2.10;;
77602;SDS011;66771;52.434;17.056;2023-01-16T04:13:08;3.70;;;2.20;;
77602;SDS011;66771;52.434;17.056;2023-01-16T04:15:39;6.10;;;2.00;;
77602;SDS011;66771;52.434;17.056;2023-01-16T04:18:10;4.60;;;2.40;;
77602;SDS011;66771;52.434;17.056;2023-01-16T04:20:37;3.50;;;1.90;;
77602;SDS011;66771;52.434;17.056;2023-01-16T04:23:08;3.80;;;2.10;;
77602;SDS011;66771;52.434;17.056;2023-01-16T04:25:35;3.70;;;2.10;;
77602;SDS011;66771;52.434;17.056;2023-01-16T04:28:02;4.50;;;2.10;;
77602;SDS011;66771;52.434;17.056;2023-01-16T04:30:29;3.40;;;1.80;;
77602;SDS011;66771;52.434;17.056;2023-01-16T04:32:55;5.00;;;2.50;;
77602;SDS011;66771;52.434;17.056;2023-01-16T04:35:22;4.20;;;1.90;;
77602;SDS011;66771;52.434;17.056;2023-01-16T04:37:49;5.00;;;2.30;;
77602;SDS011;66771;52.434;17.056;2023-01-16T04:40:15;4.40;;;2.00;;
77602;SDS011;66771;52.434;17.056;2023-01-16T04:42:42;5.60;;;2.10;;
77602;SDS011;66771;52.434;17.056;2023-01-16T04:45:09;5.80;;;3.60;;
77602;SDS011;66771;52.434;17.056;2023-01-16T04:47:36;5.00;;;2.50;;
77602;SDS011;66771;52.434;17.056;2023-01-16T04:50:03;7.00;;;2.60;;
77602;SDS011;66771;52.434;17.056;2023-01-16T04:52:30;5.00;;;2.30;;
77602;SDS011;66771;52.434;17.056;2023-01-16T04:54:56;5.40;;;3.10;;
77602;SDS011;66771;52.434;17.056;2023-01-16T04:57:23;4.70;;;2.10;;
77602;SDS011;66771;52.434;17.056;2023-01-16T04:59:50;6.30;;;2.10;;
77602;SDS011;66771;52.434;17.056;2023-01-16T05:02:16;5.00;;;2.30;;
77602;SDS011;66771;52.434;17.056;2023-01-16T05:04:43;2.30;;;1.60;;
77602;SDS011;66771;52.434;17.056;2023-01-16T05:07:10;4.30;;;1.90;;
77602;SDS011;66771;52.434;17.056;2023-01-16T05:09:37;4.70;;;2.20;;
77602;SDS011;66771;52.434;17.056;2023-01-16T05:12:03;5.80;;;2.00;;
77602;SDS011;66771;52.434;17.056;2023-01-16T05:14:30;6.20;;;2.10;;
77602;SDS011;66771;52.434;17.056;2023-01-16T05:16:57;3.30;;;1.90;;
77602;SDS011;66771;52.434;17.056;2023-01-16T05:19:24;3.20;;;2.10;;
77602;SDS011;66771;52.434;17.056;2023-01-16T05:21:50;6.40;;;2.60;;
77602;SDS011;66771;52.434;17.056;2023-01-16T05:24:17;4.40;;;2.30;;
77602;SDS011;66771;52.434;17.056;2023-01-16T05:26:44;7.20;;;2.20;;
77602;SDS011;66771;52.434;17.056;2023-01-16T05:29:10;8.70;;;2.40;;
77602;SDS011;66771;52.434;17.056;2023-01-16T05:31:37;5.10;;;2.50;;
77602;SDS011;66771;52.434;17.056;2023-01-16T05:34:04;5.80;;;2.20;;
77602;SDS011;66771;52.434;17.056;2023-01-16T05:36:31;3.40;;;2.40;;
77602;SDS011;66771;52.434;17.056;2023-01-16T05:38:58;4.80;;;2.40;;
77602;SDS011;66771;52.434;17.056;2023-01-16T05:41:24;4.50;;;2.30;;
77602;SDS011;66771;52.434;17.056;2023-01-16T05:43:51;7.40;;;3.20;;
77602;SDS011;66771;52.434;17.056;2023-01-16T05:46:18;6.80;;;2.30;;
77602;SDS011;66771;52.434;17.056;2023-01-16T05:48:44;4.50;;;2.70;;
77602;SDS011;66771;52.434;17.056;2023-01-16T05:51:11;3.70;;;2.80;;
77602;SDS011;66771;52.434;17.056;2023-01-16T05:53:38;4.30;;;2.50;;
77602;SDS011;66771;52.434;17.056;2023-01-16T05:56:08;5.10;;;2.90;;
77602;SDS011;66771;52.434;17.056;2023-01-16T05:58:36;3.80;;;2.50;;
77602;SDS011;66771;52.434;17.056;2023-01-16T06:01:03;7.80;;;3.10;;
77602;SDS011;66771;52.434;17.056;2023-01-16T06:03:30;5.30;;;2.90;;
77602;SDS011;66771;52.434;17.056;2023-01-16T06:05:57;5.20;;;2.60;;
77602;SDS011;66771;52.434;17.056;2023-01-16T06:08:25;5.10;;;3.10;;
77602;SDS011;66771;52.434;17.056;2023-01-16T06:10:51;5.50;;;2.80;;
77602;SDS011;66771;52.434;17.056;2023-01-16T06:13:19;6.10;;;3.70;;
77602;SDS011;66771;52.434;17.056;2023-01-16T06:15:46;5.50;;;3.30;;
77602;SDS011;66771;52.434;17.056;2023-01-16T06:18:12;5.20;;;3.50;;
77602;SDS011;66771;52.434;17.056;2023-01-16T06:20:41;3.90;;;3.00;;
77602;SDS011;66771;52.434;17.056;2023-01-16T06:23:08;5.50;;;3.00;;
77602;SDS011;66771;52.434;17.056;2023-01-16T06:25:36;8.90;;;3.70;;
77602;SDS011;66771;52.434;17.056;2023-01-16T06:28:03;7.00;;;3.20;;
77602;SDS011;66771;52.434;17.056;2023-01-16T06:30:29;8.40;;;4.00;;
77602;SDS011;66771;52.434;17.056;2023-01-16T06:32:56;10.40;;;3.90;;
77602;SDS011;66771;52.434;17.056;2023-01-16T06:35:23;9.20;;;4.10;;
77602;SDS011;66771;52.434;17.056;2023-01-16T06:37:49;8.00;;;3.50;;
77602;SDS011;66771;52.434;17.056;2023-01-16T06:40:16;5.60;;;3.40;;
77602;SDS011;66771;52.434;17.056;2023-01-16T06:42:45;5.90;;;3.90;;
77602;SDS011;66771;52.434;17.056;2023-01-16T06:45:11;7.70;;;4.10;;
77602;SDS011;66771;52.434;17.056;2023-01-16T06:47:38;5.90;;;3.60;;
77602;SDS011;66771;52.434;17.056;2023-01-16T06:50:05;7.00;;;3.90;;
77602;SDS011;66771;52.434;17.056;2023-01-16T06:52:32;8.40;;;3.90;;
77602;SDS011;66771;52.434;17.056;2023-01-16T06:55:01;7.30;;;3.70;;
77602;SDS011;66771;52.434;17.056;2023-01-16T06:57:28;6.40;;;3.70;;
77602;SDS011;66771;52.434;17.056;2023-01-16T06:59:55;7.50;;;3.70;;
77602;SDS011;66771;52.434;17.056;2023-01-16T07:02:21;4.90;;;3.00;;
77602;SDS011;66771;52.434;17.056;2023-01-16T07:04:48;7.10;;;3.50;;
77602;SDS011;66771;52.434;17.056;2023-01-16T07:07:15;8.20;;;2.90;;
77602;SDS011;66771;52.434;17.056;2023-01-16T07:09:42;11.00;;;3.30;;
77602;SDS011;66771;52.434;17.056;2023-01-16T07:12:09;10.10;;;3.50;;
77602;SDS011;66771;52.434;17.056;2023-01-16T07:14:35;5.40;;;3.10;;
77602;SDS011;66771;52.434;17.056;2023-01-16T07:17:21;7.50;;;3.40;;
77602;SDS011;66771;52.434;17.056;2023-01-16T07:20:08;6.60;;;3.10;;
77602;SDS011;66771;52.434;17.056;2023-01-16T07:22:55;4.60;;;2.70;;
77602;SDS011;66771;52.434;17.056;2023-01-16T07:25:24;7.30;;;4.20;;
77602;SDS011;66771;52.434;17.056;2023-01-16T07:27:58;6.30;;;3.60;;
77602;SDS011;66771;52.434;17.056;2023-01-16T07:30:25;6.80;;;4.20;;
77602;SDS011;66771;52.434;17.056;2023-01-16T07:32:52;6.20;;;3.90;;
77602;SDS011;66771;52.434;17.056;2023-01-16T07:35:18;7.70;;;4.30;;
77602;SDS011;66771;52.434;17.056;2023-01-16T07:37:45;7.00;;;3.90;;
77602;SDS011;66771;52.434;17.056;2023-01-16T07:40:12;8.60;;;4.60;;
77602;SDS011;66771;52.434;17.056;2023-01-16T07:42:39;7.50;;;3.60;;
77602;SDS011;66771;52.434;17.056;2023-01-16T07:45:06;6.60;;;3.80;;
77602;SDS011;66771;52.434;17.056;2023-01-16T07:47:34;7.00;;;3.30;;
77602;SDS011;66771;52.434;17.056;2023-01-16T07:50:01;8.30;;;4.00;;
77602;SDS011;66771;52.434;17.056;2023-01-16T07:52:27;6.30;;;3.60;;
77602;SDS011;66771;52.434;17.056;2023-01-16T07:54:54;7.70;;;3.30;;
77602;SDS011;66771;52.434;17.056;2023-01-16T07:57:21;7.30;;;3.50;;
77602;SDS011;66771;52.434;17.056;2023-01-16T07:59:48;4.70;;;3.00;;
77602;SDS011;66771;52.434;17.056;2023-01-16T08:02:14;5.90;;;3.30;;
77602;SDS011;66771;52.434;17.056;2023-01-16T08:04:41;5.80;;;4.00;;
77602;SDS011;66771;52.434;17.056;2023-01-16T08:07:08;7.10;;;3.20;;
77602;SDS011;66771;52.434;17.056;2023-01-16T08:09:35;6.40;;;3.40;;
77602;SDS011;66771;52.434;17.056;2023-01-16T08:12:01;7.50;;;4.30;;
77602;SDS011;66771;52.434;17.056;2023-01-16T08:14:28;8.70;;;4.30;;
77602;SDS011;66771;52.434;17.056;2023-01-16T08:16:55;9.60;;;4.10;;
77602;SDS011;66771;52.434;17.056;2023-01-16T08:19:22;6.10;;;3.40;;
77602;SDS011;66771;52.434;17.056;2023-01-16T08:21:48;8.00;;;3.90;;
77602;SDS011;66771;52.434;17.056;2023-01-16T08:24:15;6.20;;;3.70;;
77602;SDS011;66771;52.434;17.056;2023-01-16T08:26:42;7.30;;;3.70;;
77602;SDS011;66771;52.434;17.056;2023-01-16T08:29:09;7.60;;;3.50;;
77602;SDS011;66771;52.434;17.056;2023-01-16T08:31:36;6.00;;;3.70;;
77602;SDS011;66771;52.434;17.056;2023-01-16T08:34:02;10.10;;;3.90;;
77602;SDS011;66771;52.434;17.056;2023-01-16T08:36:29;7.50;;;4.10;;
77602;SDS011;66771;52.434;17.056;2023-01-16T08:38:56;4.80;;;3.30;;
77602;SDS011;66771;52.434;17.056;2023-01-16T08:41:23;8.80;;;4.60;;
77602;SDS011;66771;52.434;17.056;2023-01-16T08:44:08;11.90;;;5.60;;
77602;SDS011;66771;52.434;17.056;2023-01-16T08:46:55;11.20;;;6.70;;
77602;SDS011;66771;52.434;17.056;2023-01-16T08:49:44;10.20;;;5.70;;
77602;SDS011;66771;52.434;17.056;2023-01-16T08:52:31;7.70;;;4.80;;
77602;SDS011;66771;52.434;17.056;2023-01-16T08:55:00;17.10;;;9.20;;
77602;SDS011;66771;52.434;17.056;2023-01-16T08:57:27;16.90;;;10.20;;
77602;SDS011;66771;52.434;17.056;2023-01-16T08:59:55;19.90;;;10.20;;
77602;SDS011;66771;52.434;17.056;2023-01-16T09:02:23;17.80;;;10.00;;
77602;SDS011;66771;52.434;17.056;2023-01-16T09:04:51;16.60;;;11.10;;
77602;SDS011;66771;52.434;17.056;2023-01-16T09:07:20;18.40;;;11.10;;
77602;SDS011;66771;52.434;17.056;2023-01-16T09:09:48;19.30;;;11.20;;
77602;SDS011;66771;52.434;17.056;2023-01-16T09:12:14;19.30;;;10.20;;
77602;SDS011;66771;52.434;17.056;2023-01-16T09:15:00;24.20;;;10.80;;
77602;SDS011;66771;52.434;17.056;2023-01-16T09:17:27;17.30;;;9.40;;
77602;SDS011;66771;52.434;17.056;2023-01-16T09:19:54;15.30;;;10.10;;
77602;SDS011;66771;52.434;17.056;2023-01-16T09:22:21;12.80;;;8.50;;
77602;SDS011;66771;52.434;17.056;2023-01-16T09:24:47;13.90;;;8.40;;
77602;SDS011;66771;52.434;17.056;2023-01-16T09:27:14;13.00;;;8.20;;
77602;SDS011;66771;52.434;17.056;2023-01-16T09:29:41;15.30;;;9.00;;
77602;SDS011;66771;52.434;17.056;2023-01-16T09:32:08;14.20;;;9.40;;
77602;SDS011;66771;52.434;17.056;2023-01-16T09:34:36;17.40;;;8.40;;
77602;SDS011;66771;52.434;17.056;2023-01-16T09:37:04;13.00;;;8.70;;
77602;SDS011;66771;52.434;17.056;2023-01-16T09:39:32;14.70;;;8.20;;
77602;SDS011;66771;52.434;17.056;2023-01-16T09:44:51;11.70;;;7.40;;
77602;SDS011;66771;52.434;17.056;2023-01-16T09:47:21;16.20;;;8.00;;
77602;SDS011;66771;52.434;17.056;2023-01-16T09:49:55;16.60;;;8.40;;
77602;SDS011;66771;52.434;17.056;2023-01-16T09:52:29;16.40;;;9.20;;
77602;SDS011;66771;52.434;17.056;2023-01-16T09:55:23;10.90;;;7.50;;
77602;SDS011;66771;52.434;17.056;2023-01-16T09:58:20;10.00;;;7.20;;
77602;SDS011;66771;52.434;17.056;2023-01-16T10:03:34;12.10;;;7.40;;
77602;SDS011;66771;52.434;17.056;2023-01-16T10:08:53;11.20;;;6.60;;
77602;SDS011;66771;52.434;17.056;2023-01-16T10:11:23;10.00;;;6.20;;
77602;SDS011;66771;52.434;17.056;2023-01-16T10:19:22;9.80;;;6.30;;
77602;SDS011;66771;52.434;17.056;2023-01-16T10:25:32;8.00;;;4.50;;
77602;SDS011;66771;52.434;17.056;2023-01-16T10:31:12;9.20;;;5.20;;
77602;SDS011;66771;52.434;17.056;2023-01-16T10:33:54;7.50;;;4.20;;
77602;SDS011;66771;52.434;17.056;2023-01-16T10:36:34;10.70;;;4.20;;
77602;SDS011;66771;52.434;17.056;2023-01-16T10:39:05;7.40;;;4.60;;
77602;SDS011;66771;52.434;17.056;2023-01-16T10:41:38;12.00;;;5.60;;
77602;SDS011;66771;52.434;17.056;2023-01-16T10:44:36;9.50;;;4.50;;
77602;SDS011;66771;52.434;17.056;2023-01-16T10:47:28;10.30;;;4.40;;
77602;SDS011;66771;52.434;17.056;2023-01-16T10:50:17;7.40;;;4.20;;
77602;SDS011;66771;52.434;17.056;2023-01-16T10:52:45;8.10;;;4.00;;
77602;SDS011;66771;52.434;17.056;2023-01-16T10:55:14;8.50;;;4.30;;
77602;SDS011;66771;52.434;17.056;2023-01-16T10:57:49;7.90;;;4.10;;
77602;SDS011;66771;52.434;17.056;2023-01-16T11:00:20;9.20;;;4.40;;
77602;SDS011;66771;52.434;17.056;2023-01-16T11:02:58;11.20;;;5.30;;
77602;SDS011;66771;52.434;17.056;2023-01-16T11:05:29;9.00;;;4.90;;
77602;SDS011;66771;52.434;17.056;2023-01-16T11:08:04;8.00;;;4.70;;
77602;SDS011;66771;52.434;17.056;2023-01-16T11:10:33;9.80;;;5.20;;
77602;SDS011;66771;52.434;17.056;2023-01-16T11:13:00;9.50;;;4.90;;
77602;SDS011;66771;52.434;17.056;2023-01-16T11:16:03;15.30;;;5.70;;
77602;SDS011;66771;52.434;17.056;2023-01-16T11:18:59;10.00;;;5.60;;
77602;SDS011;66771;52.434;17.056;2023-01-16T11:21:41;9.70;;;5.50;;
77602;SDS011;66771;52.434;17.056;2023-01-16T11:26:45;8.50;;;4.60;;
77602;SDS011;66771;52.434;17.056;2023-01-16T11:29:15;10.50;;;5.60;;
77602;SDS011;66771;52.434;17.056;2023-01-16T11:31:54;15.30;;;6.20;;
77602;SDS011;66771;52.434;17.056;2023-01-16T11:34:24;8.70;;;4.60;;
77602;SDS011;66771;52.434;17.056;2023-01-16T11:36:53;8.50;;;4.50;;
77602;SDS011;66771;52.434;17.056;2023-01-16T11:39:24;10.40;;;3.50;;
77602;SDS011;66771;52.434;17.056;2023-01-16T11:41:54;6.20;;;3.80;;
77602;SDS011;66771;52.434;17.056;2023-01-16T11:44:27;5.60;;;3.10;;
77602;SDS011;66771;52.434;17.056;2023-01-16T11:47:18;4.70;;;3.10;;
77602;SDS011;66771;52.434;17.056;2023-01-16T11:49:49;7.20;;;3.10;;
77602;SDS011;66771;52.434;17.056;2023-01-16T11:52:19;7.00;;;4.10;;
77602;SDS011;66771;52.434;17.056;2023-01-16T11:54:58;6.70;;;3.50;;
77602;SDS011;66771;52.434;17.056;2023-01-16T12:00:14;6.30;;;3.80;;
77602;SDS011;66771;52.434;17.056;2023-01-16T12:05:52;6.30;;;4.20;;
77602;SDS011;66771;52.434;17.056;2023-01-16T12:12:09;9.40;;;4.80;;
77602;SDS011;66771;52.434;17.056;2023-01-16T12:14:49;10.00;;;4.60;;
77602;SDS011;66771;52.434;17.056;2023-01-16T12:22:37;7.30;;;4.80;;
77602;SDS011;66771;52.434;17.056;2023-01-16T12:33:43;10.20;;;4.80;;
77602;SDS011;66771;52.434;17.056;2023-01-16T12:48:17;14.60;;;8.40;;
77602;SDS011;66771;52.434;17.056;2023-01-16T12:53:41;7.30;;;4.70;;
77602;SDS011;66771;52.434;17.056;2023-01-16T12:59:04;9.30;;;4.90;;
77602;SDS011;66771;52.434;17.056;2023-01-16T13:01:42;9.80;;;6.30;;
77602;SDS011;66771;52.434;17.056;2023-01-16T13:04:19;10.80;;;6.60;;
77602;SDS011;66771;52.434;17.056;2023-01-16T13:06:47;10.50;;;5.50;;
77602;SDS011;66771;52.434;17.056;2023-01-16T13:09:18;8.60;;;4.80;;
77602;SDS011;66771;52.434;17.056;2023-01-16T13:12:14;9.20;;;4.70;;
77602;SDS011;66771;52.434;17.056;2023-01-16T13:15:07;13.50;;;5.60;;
77602;SDS011;66771;52.434;17.056;2023-01-16T13:17:46;10.20;;;5.80;;
77602;SDS011;66771;52.434;17.056;2023-01-16T13:20:18;11.70;;;6.20;;
77602;SDS011;66771;52.434;17.056;2023-01-16T13:22:51;11.00;;;5.50;;
77602;SDS011;66771;52.434;17.056;2023-01-16T13:25:26;19.40;;;10.40;;
77602;SDS011;66771;52.434;17.056;2023-01-16T13:28:04;28.30;;;12.10;;
77602;SDS011;66771;52.434;17.056;2023-01-16T13:30:39;14.60;;;6.10;;
77602;SDS011;66771;52.434;17.056;2023-01-16T13:33:11;10.00;;;6.70;;
77602;SDS011;66771;52.434;17.056;2023-01-16T13:35:45;11.10;;;5.90;;
77602;SDS011;66771;52.434;17.056;2023-01-16T13:43:39;12.00;;;5.70;;
77602;SDS011;66771;52.434;17.056;2023-01-16T13:46:33;11.00;;;5.80;;
77602;SDS011;66771;52.434;17.056;2023-01-16T13:49:02;14.60;;;6.30;;
77602;SDS011;66771;52.434;17.056;2023-01-16T13:51:31;12.10;;;6.20;;
77602;SDS011;66771;52.434;17.056;2023-01-16T13:54:11;12.40;;;6.60;;
77602;SDS011;66771;52.434;17.056;2023-01-16T13:56:41;13.30;;;6.30;;
77602;SDS011;66771;52.434;17.056;2023-01-16T13:59:18;17.50;;;7.70;;
77602;SDS011;66771;52.434;17.056;2023-01-16T14:02:00;12.30;;;6.60;;
77602;SDS011;66771;52.434;17.056;2023-01-16T14:04:28;16.40;;;7.70;;
77602;SDS011;66771;52.434;17.056;2023-01-16T14:06:58;12.20;;;6.50;;
77602;SDS011;66771;52.434;17.056;2023-01-16T14:13:01;12.80;;;6.80;;
77602;SDS011;66771;52.434;17.056;2023-01-16T14:19:13;15.40;;;7.10;;
77602;SDS011;66771;52.434;17.056;2023-01-16T14:21:46;17.90;;;7.20;;
77602;SDS011;66771;52.434;17.056;2023-01-16T14:27:37;16.50;;;7.10;;
77602;SDS011;66771;52.434;17.056;2023-01-16T14:30:19;18.80;;;8.00;;
77602;SDS011;66771;52.434;17.056;2023-01-16T14:32:53;20.10;;;8.50;;
77602;SDS011;66771;52.434;17.056;2023-01-16T14:35:29;21.40;;;8.40;;
77602;SDS011;66771;52.434;17.056;2023-01-16T14:38:08;21.70;;;8.60;;
77602;SDS011;66771;52.434;17.056;2023-01-16T14:40:46;21.10;;;8.40;;
77602;SDS011;66771;52.434;17.056;2023-01-16T14:43:36;18.30;;;9.30;;
77602;SDS011;66771;52.434;17.056;2023-01-16T14:46:31;18.40;;;8.20;;
77602;SDS011;66771;52.434;17.056;2023-01-16T14:52:34;14.80;;;7.10;;
77602;SDS011;66771;52.434;17.056;2023-01-16T14:55:21;22.60;;;9.70;;
77602;SDS011;66771;52.434;17.056;2023-01-16T14:57:49;19.80;;;10.00;;
77602;SDS011;66771;52.434;17.056;2023-01-16T15:00:18;22.40;;;9.40;;
77602;SDS011;66771;52.434;17.056;2023-01-16T15:02:54;17.80;;;9.10;;
77602;SDS011;66771;52.434;17.056;2023-01-16T15:08:20;27.90;;;13.90;;
77602;SDS011;66771;52.434;17.056;2023-01-16T15:10:53;27.50;;;12.30;;
77602;SDS011;66771;52.434;17.056;2023-01-16T15:13:22;28.10;;;13.40;;
77602;SDS011;66771;52.434;17.056;2023-01-16T15:16:19;23.10;;;12.30;;
77602;SDS011;66771;52.434;17.056;2023-01-16T15:19:19;22.40;;;10.90;;
77602;SDS011;66771;52.434;17.056;2023-01-16T15:22:17;23.20;;;11.10;;
77602;SDS011;66771;52.434;17.056;2023-01-16T15:24:54;26.40;;;12.50;;
77602;SDS011;66771;52.434;17.056;2023-01-16T15:27:28;26.60;;;12.40;;
77602;SDS011;66771;52.434;17.056;2023-01-16T15:30:04;26.60;;;10.90;;
77602;SDS011;66771;52.434;17.056;2023-01-16T15:35:43;36.30;;;13.80;;
77602;SDS011;66771;52.434;17.056;2023-01-16T15:38:12;41.80;;;14.10;;
77602;SDS011;66771;52.434;17.056;2023-01-16T15:40:46;33.50;;;14.80;;
77602;SDS011;66771;52.434;17.056;2023-01-16T15:43:16;45.70;;;15.30;;
77602;SDS011;66771;52.434;17.056;2023-01-16T15:46:15;61.20;;;21.30;;
77602;SDS011;66771;52.434;17.056;2023-01-16T15:51:50;31.30;;;15.20;;
77602;SDS011;66771;52.434;17.056;2023-01-16T15:54:18;30.20;;;14.70;;
77602;SDS011;66771;52.434;17.056;2023-01-16T15:56:46;24.70;;;13.20;;
77602;SDS011;66771;52.434;17.056;2023-01-16T15:59:21;25.20;;;12.20;;
77602;SDS011;66771;52.434;17.056;2023-01-16T16:02:22;22.90;;;13.20;;
77602;SDS011;66771;52.434;17.056;2023-01-16T16:04:52;30.30;;;15.10;;
77602;SDS011;66771;52.434;17.056;2023-01-16T16:07:22;35.60;;;15.70;;
77602;SDS011;66771;52.434;17.056;2023-01-16T16:09:51;30.50;;;15.30;;
77602;SDS011;66771;52.434;17.056;2023-01-16T16:12:22;27.30;;;14.20;;
77602;SDS011;66771;52.434;17.056;2023-01-16T16:14:49;27.70;;;15.70;;
77602;SDS011;66771;52.434;17.056;2023-01-16T16:18:01;28.40;;;14.30;;
77602;SDS011;66771;52.434;17.056;2023-01-16T16:20:39;26.50;;;14.00;;
77602;SDS011;66771;52.434;17.056;2023-01-16T16:28:05;30.40;;;15.60;;
77602;SDS011;66771;52.434;17.056;2023-01-16T16:30:43;34.60;;;15.90;;
77602;SDS011;66771;52.434;17.056;2023-01-16T16:33:17;34.10;;;15.80;;
77602;SDS011;66771;52.434;17.056;2023-01-16T16:35:46;31.40;;;15.60;;
77602;SDS011;66771;52.434;17.056;2023-01-16T16:38:20;34.20;;;15.90;;
77602;SDS011;66771;52.434;17.056;2023-01-16T16:46:35;29.10;;;16.20;;
77602;SDS011;66771;52.434;17.056;2023-01-16T16:51:36;34.70;;;17.60;;
77602;SDS011;66771;52.434;17.056;2023-01-16T16:54:12;34.10;;;18.30;;
77602;SDS011;66771;52.434;17.056;2023-01-16T16:56:50;35.50;;;19.00;;
77602;SDS011;66771;52.434;17.056;2023-01-16T16:59:21;37.40;;;18.10;;
77602;SDS011;66771;52.434;17.056;2023-01-16T17:01:52;37.70;;;19.50;;
77602;SDS011;66771;52.434;17.056;2023-01-16T17:04:21;35.60;;;18.20;;
77602;SDS011;66771;52.434;17.056;2023-01-16T17:06:48;32.10;;;16.80;;
77602;SDS011;66771;52.434;17.056;2023-01-16T17:09:18;32.20;;;16.70;;
77602;SDS011;66771;52.434;17.056;2023-01-16T17:11:46;32.60;;;18.50;;
77602;SDS011;66771;52.434;17.056;2023-01-16T17:14:13;38.60;;;19.20;;
77602;SDS011;66771;52.434;17.056;2023-01-16T17:16:39;30.10;;;16.20;;
77602;SDS011;66771;52.434;17.056;2023-01-16T17:19:18;31.80;;;17.90;;
77602;SDS011;66771;52.434;17.056;2023-01-16T17:21:48;30.50;;;16.30;;
77602;SDS011;66771;52.434;17.056;2023-01-16T17:24:16;37.30;;;17.10;;
77602;SDS011;66771;52.434;17.056;2023-01-16T17:26:44;30.50;;;16.70;;
77602;SDS011;66771;52.434;17.056;2023-01-16T17:29:11;36.00;;;19.30;;
77602;SDS011;66771;52.434;17.056;2023-01-16T17:31:39;32.70;;;17.20;;
77602;SDS011;66771;52.434;17.056;2023-01-16T17:34:14;44.80;;;23.30;;
77602;SDS011;66771;52.434;17.056;2023-01-16T17:36:42;42.80;;;21.00;;
77602;SDS011;66771;52.434;17.056;2023-01-16T17:39:09;40.40;;;20.40;;
77602;SDS011;66771;52.434;17.056;2023-01-16T17:41:37;36.50;;;17.70;;
77602;SDS011;66771;52.434;17.056;2023-01-16T17:44:15;35.60;;;19.20;;
77602;SDS011;66771;52.434;17.056;2023-01-16T17:47:05;30.80;;;17.10;;
77602;SDS011;66771;52.434;17.056;2023-01-16T17:49:32;34.40;;;18.10;;
77602;SDS011;66771;52.434;17.056;2023-01-16T17:52:23;33.20;;;18.80;;
77602;SDS011;66771;52.434;17.056;2023-01-16T17:54:51;36.00;;;17.80;;
77602;SDS011;66771;52.434;17.056;2023-01-16T17:57:36;33.90;;;18.90;;
77602;SDS011;66771;52.434;17.056;2023-01-16T18:00:03;37.30;;;20.40;;
77602;SDS011;66771;52.434;17.056;2023-01-16T18:02:31;43.10;;;23.00;;
77602;SDS011;66771;52.434;17.056;2023-01-16T18:04:58;39.50;;;20.40;;